sensor_id;sensor_type;location;lat;lon;timestamp;temperature;humidity
21207;DHT22;10761;48.532;8.026;2023-02-28T00:01:04;-0.90;99.90
21207;DHT22;10761;48.532;8.026;2023-02-28T00:03:30;-0.90;99.90
21207;DHT22;10761;48.532;8.026;2023-02-28T00:05:55;-0.90;99.90
21207;DHT22;10761;48.532;8.026;2023-02-28T00:08:20;-1.00;99.90
21207;DHT22;10761;48.532;8.026;2023-02-28T00:10:46;-1.00;99.90
21207;DHT22;10761;48.532;8.026;2023-02-28T00:13:11;-1.20;99.90
21207;DHT22;10761;48.532;8.026;2023-02-28T00:15:38;-1.20;99.90
21207;DHT22;10761;48.532;8.026;2023-02-28T00:18:03;-1.30;99.90
21207;DHT22;10761;48.532;8.026;2023-02-28T00:20:29;-1.40;99.90
21207;DHT22;10761;48.532;8.026;2023-02-28T00:22:54;-1.40;99.90
21207;DHT22;10761;48.532;8.026;2023-02-28T00:25:21;-1.40;99.90
21207;DHT22;10761;48.532;8.026;2023-02-28T00:27:47;-1.40;99.90
21207;DHT22;10761;48.532;8.026;2023-02-28T00:30:14;-1.40;99.90
21207;DHT22;10761;48.532;8.026;2023-02-28T00:32:40;-1.50;99.90
21207;DHT22;10761;48.532;8.026;2023-02-28T00:35:06;-1.50;99.90
21207;DHT22;10761;48.532;8.026;2023-02-28T00:37:31;-1.50;99.90
21207;DHT22;10761;48.532;8.026;2023-02-28T00:39:57;-1.40;99.90
21207;DHT22;10761;48.532;8.026;2023-02-28T00:42:22;-1.50;99.90
21207;DHT22;10761;48.532;8.026;2023-02-28T00:44:50;-1.50;99.90
21207;DHT22;10761;48.532;8.026;2023-02-28T00:47:15;-1.50;99.90
21207;DHT22;10761;48.532;8.026;2023-02-28T00:49:41;-1.50;99.90
21207;DHT22;10761;48.532;8.026;2023-02-28T00:52:06;-1.50;99.90
21207;DHT22;10761;48.532;8.026;2023-02-28T00:54:32;-1.50;99.90
21207;DHT22;10761;48.532;8.026;2023-02-28T00:56:58;-1.50;99.90
21207;DHT22;10761;48.532;8.026;2023-02-28T00:59:23;-1.50;99.90
21207;DHT22;10761;48.532;8.026;2023-02-28T01:01:49;-1.40;99.90
21207;DHT22;10761;48.532;8.026;2023-02-28T01:04:14;-1.50;99.90
21207;DHT22;10761;48.532;8.026;2023-02-28T01:06:40;-1.50;99.90
21207;DHT22;10761;48.532;8.026;2023-02-28T01:09:06;-1.40;99.90
21207;DHT22;10761;48.532;8.026;2023-02-28T01:11:32;-1.40;99.90
21207;DHT22;10761;48.532;8.026;2023-02-28T01:13:57;-1.40;99.90
21207;DHT22;10761;48.532;8.026;2023-02-28T01:16:23;-1.40;99.90
21207;DHT22;10761;48.532;8.026;2023-02-28T01:18:49;-1.40;99.90
21207;DHT22;10761;48.532;8.026;2023-02-28T01:21:15;-1.40;99.90
21207;DHT22;10761;48.532;8.026;2023-02-28T01:23:41;-1.40;99.90
21207;DHT22;10761;48.532;8.026;2023-02-28T01:26:12;-1.40;99.90
21207;DHT22;10761;48.532;8.026;2023-02-28T01:28:38;-1.40;99.90
21207;DHT22;10761;48.532;8.026;2023-02-28T01:31:04;-1.40;99.90
21207;DHT22;10761;48.532;8.026;2023-02-28T01:33:29;-1.30;99.90
21207;DHT22;10761;48.532;8.026;2023-02-28T01:36:02;-1.30;99.90
21207;DHT22;10761;48.532;8.026;2023-02-28T01:38:28;-1.30;99.90
21207;DHT22;10761;48.532;8.026;2023-02-28T01:40:54;-1.30;99.90
21207;DHT22;10761;48.532;8.026;2023-02-28T01:43:24;-1.30;99.90
21207;DHT22;10761;48.532;8.026;2023-02-28T01:45:50;-1.30;99.90
21207;DHT22;10761;48.532;8.026;2023-02-28T01:48:16;-1.30;99.90
21207;DHT22;10761;48.532;8.026;2023-02-28T01:50:42;-1.30;99.90
21207;DHT22;10761;48.532;8.026;2023-02-28T01:53:10;-1.20;99.90
21207;DHT22;10761;48.532;8.026;2023-02-28T01:55:38;-1.20;99.90
21207;DHT22;10761;48.532;8.026;2023-02-28T01:58:05;-1.20;99.90
21207;DHT22;10761;48.532;8.026;2023-02-28T02:00:31;-1.10;99.90
21207;DHT22;10761;48.532;8.026;2023-02-28T02:02:57;-1.10;99.90
21207;DHT22;10761;48.532;8.026;2023-02-28T02:05:25;-1.10;99.90
21207;DHT22;10761;48.532;8.026;2023-02-28T02:07:54;-1.10;99.90
21207;DHT22;10761;48.532;8.026;2023-02-28T02:10:22;-1.10;99.90
21207;DHT22;10761;48.532;8.026;2023-02-28T02:15:26;-1.10;99.90
21207;DHT22;10761;48.532;8.026;2023-02-28T02:17:56;-1.10;99.90
21207;DHT22;10761;48.532;8.026;2023-02-28T02:23:01;-1.10;99.90
21207;DHT22;10761;48.532;8.026;2023-02-28T02:25:39;-1.10;99.90
21207;DHT22;10761;48.532;8.026;2023-02-28T02:33:23;-1.20;99.90
21207;DHT22;10761;48.532;8.026;2023-02-28T02:36:07;-1.20;99.90
21207;DHT22;10761;48.532;8.026;2023-02-28T02:38:36;-1.20;99.90
21207;DHT22;10761;48.532;8.026;2023-02-28T02:41:17;-1.20;99.90
21207;DHT22;10761;48.532;8.026;2023-02-28T02:46:14;-1.20;99.90
21207;DHT22;10761;48.532;8.026;2023-02-28T02:48:41;-1.20;99.90
21207;DHT22;10761;48.532;8.026;2023-02-28T02:51:09;-1.20;99.90
21207;DHT22;10761;48.532;8.026;2023-02-28T02:53:38;-1.20;99.90
21207;DHT22;10761;48.532;8.026;2023-02-28T02:56:06;-1.20;99.90
21207;DHT22;10761;48.532;8.026;2023-02-28T02:58:33;-1.20;99.90
21207;DHT22;10761;48.532;8.026;2023-02-28T03:01:01;-1.20;99.90
21207;DHT22;10761;48.532;8.026;2023-02-28T03:03:27;-1.20;99.90
21207;DHT22;10761;48.532;8.026;2023-02-28T03:05:59;-1.20;99.90
21207;DHT22;10761;48.532;8.026;2023-02-28T03:08:25;-1.20;99.90
21207;DHT22;10761;48.532;8.026;2023-02-28T03:10:52;-1.30;99.90
21207;DHT22;10761;48.532;8.026;2023-02-28T03:18:24;-1.30;99.90
21207;DHT22;10761;48.532;8.026;2023-02-28T03:21:02;-1.40;99.90
21207;DHT22;10761;48.532;8.026;2023-02-28T03:23:35;-1.40;99.90
21207;DHT22;10761;48.532;8.026;2023-02-28T03:26:04;-1.40;99.90
21207;DHT22;10761;48.532;8.026;2023-02-28T03:28:34;-1.40;99.90
21207;DHT22;10761;48.532;8.026;2023-02-28T03:31:03;-1.40;99.90
21207;DHT22;10761;48.532;8.026;2023-02-28T03:33:42;-1.40;99.90
21207;DHT22;10761;48.532;8.026;2023-02-28T03:36:10;-1.50;99.90
21207;DHT22;10761;48.532;8.026;2023-02-28T03:38:38;-1.40;99.90
21207;DHT22;10761;48.532;8.026;2023-02-28T03:41:16;-1.50;99.90
21207;DHT22;10761;48.532;8.026;2023-02-28T03:43:44;-1.50;99.90
21207;DHT22;10761;48.532;8.026;2023-02-28T03:46:12;-1.50;99.90
21207;DHT22;10761;48.532;8.026;2023-02-28T03:48:43;-1.60;99.90
21207;DHT22;10761;48.532;8.026;2023-02-28T03:51:09;-1.60;99.90
21207;DHT22;10761;48.532;8.026;2023-02-28T03:53:47;-1.70;99.90
21207;DHT22;10761;48.532;8.026;2023-02-28T03:56:16;-1.70;99.90
21207;DHT22;10761;48.532;8.026;2023-02-28T03:58:46;-1.70;99.90
21207;DHT22;10761;48.532;8.026;2023-02-28T04:01:15;-1.70;99.90
21207;DHT22;10761;48.532;8.026;2023-02-28T04:03:42;-1.80;99.90
21207;DHT22;10761;48.532;8.026;2023-02-28T04:06:08;-1.80;99.90
21207;DHT22;10761;48.532;8.026;2023-02-28T04:08:38;-1.80;99.90
21207;DHT22;10761;48.532;8.026;2023-02-28T04:11:05;-1.80;99.90
21207;DHT22;10761;48.532;8.026;2023-02-28T04:13:32;-1.80;99.90
21207;DHT22;10761;48.532;8.026;2023-02-28T04:15:57;-1.80;99.90
21207;DHT22;10761;48.532;8.026;2023-02-28T04:18:23;-1.80;99.90
21207;DHT22;10761;48.532;8.026;2023-02-28T04:20:48;-1.80;99.90
21207;DHT22;10761;48.532;8.026;2023-02-28T04:23:14;-1.80;99.90
21207;DHT22;10761;48.532;8.026;2023-02-28T04:25:39;-1.70;99.90
21207;DHT22;10761;48.532;8.026;2023-02-28T04:28:05;-1.70;99.90
21207;DHT22;10761;48.532;8.026;2023-02-28T04:30:31;-1.70;99.90
21207;DHT22;10761;48.532;8.026;2023-02-28T04:32:58;-1.70;99.90
21207;DHT22;10761;48.532;8.026;2023-02-28T04:35:23;-1.70;99.90
21207;DHT22;10761;48.532;8.026;2023-02-28T04:37:49;-1.70;99.90
21207;DHT22;10761;48.532;8.026;2023-02-28T04:40:14;-1.70;99.90
21207;DHT22;10761;48.532;8.026;2023-02-28T04:42:40;-1.70;99.90
21207;DHT22;10761;48.532;8.026;2023-02-28T04:45:06;-1.80;99.90
21207;DHT22;10761;48.532;8.026;2023-02-28T04:47:31;-1.80;99.90
21207;DHT22;10761;48.532;8.026;2023-02-28T04:49:57;-1.80;99.90
21207;DHT22;10761;48.532;8.026;2023-02-28T04:52:22;-1.90;99.90
21207;DHT22;10761;48.532;8.026;2023-02-28T04:54:48;-1.90;99.90
21207;DHT22;10761;48.532;8.026;2023-02-28T04:57:14;-2.00;99.90
21207;DHT22;10761;48.532;8.026;2023-02-28T04:59:39;-2.00;99.90
21207;DHT22;10761;48.532;8.026;2023-02-28T05:02:05;-2.00;99.90
21207;DHT22;10761;48.532;8.026;2023-02-28T05:04:32;-2.10;99.90
21207;DHT22;10761;48.532;8.026;2023-02-28T05:06:59;-2.10;99.90
21207;DHT22;10761;48.532;8.026;2023-02-28T05:09:25;-2.10;99.90
21207;DHT22;10761;48.532;8.026;2023-02-28T05:11:50;-2.20;99.90
21207;DHT22;10761;48.532;8.026;2023-02-28T05:14:16;-2.10;99.90
21207;DHT22;10761;48.532;8.026;2023-02-28T05:16:41;-2.20;99.90
21207;DHT22;10761;48.532;8.026;2023-02-28T05:19:07;-2.20;99.90
21207;DHT22;10761;48.532;8.026;2023-02-28T05:21:37;-2.20;99.90
21207;DHT22;10761;48.532;8.026;2023-02-28T05:24:04;-2.10;99.90
21207;DHT22;10761;48.532;8.026;2023-02-28T05:26:30;-2.20;99.90
21207;DHT22;10761;48.532;8.026;2023-02-28T05:28:56;-2.20;99.90
21207;DHT22;10761;48.532;8.026;2023-02-28T05:31:22;-2.20;99.90
21207;DHT22;10761;48.532;8.026;2023-02-28T05:33:47;-2.20;99.90
21207;DHT22;10761;48.532;8.026;2023-02-28T05:36:13;-2.20;99.90
21207;DHT22;10761;48.532;8.026;2023-02-28T05:38:39;-2.20;99.90
21207;DHT22;10761;48.532;8.026;2023-02-28T05:41:08;-2.20;99.90
21207;DHT22;10761;48.532;8.026;2023-02-28T05:43:34;-2.30;99.90
21207;DHT22;10761;48.532;8.026;2023-02-28T05:46:01;-2.30;99.90
21207;DHT22;10761;48.532;8.026;2023-02-28T05:48:27;-2.30;99.90
21207;DHT22;10761;48.532;8.026;2023-02-28T05:50:52;-2.20;99.90
21207;DHT22;10761;48.532;8.026;2023-02-28T05:53:18;-2.20;99.90
21207;DHT22;10761;48.532;8.026;2023-02-28T05:55:43;-2.20;99.90
21207;DHT22;10761;48.532;8.026;2023-02-28T05:58:09;-2.10;99.90
21207;DHT22;10761;48.532;8.026;2023-02-28T06:00:34;-2.10;99.90
21207;DHT22;10761;48.532;8.026;2023-02-28T06:03:00;-2.10;99.90
21207;DHT22;10761;48.532;8.026;2023-02-28T06:05:27;-2.10;99.90
21207;DHT22;10761;48.532;8.026;2023-02-28T06:07:53;-2.10;99.90
21207;DHT22;10761;48.532;8.026;2023-02-28T06:10:18;-2.10;99.90
21207;DHT22;10761;48.532;8.026;2023-02-28T06:12:44;-2.00;99.90
21207;DHT22;10761;48.532;8.026;2023-02-28T06:15:11;-2.00;99.90
21207;DHT22;10761;48.532;8.026;2023-02-28T06:17:37;-1.90;99.90
21207;DHT22;10761;48.532;8.026;2023-02-28T06:20:03;-1.90;99.90
21207;DHT22;10761;48.532;8.026;2023-02-28T06:22:28;-1.90;99.90
21207;DHT22;10761;48.532;8.026;2023-02-28T06:24:54;-1.90;99.90
21207;DHT22;10761;48.532;8.026;2023-02-28T06:27:21;-1.90;99.90
21207;DHT22;10761;48.532;8.026;2023-02-28T06:29:47;-1.90;99.90
21207;DHT22;10761;48.532;8.026;2023-02-28T06:32:12;-1.80;99.90
21207;DHT22;10761;48.532;8.026;2023-02-28T06:34:38;-1.80;99.90
21207;DHT22;10761;48.532;8.026;2023-02-28T06:37:03;-1.80;99.90
21207;DHT22;10761;48.532;8.026;2023-02-28T06:39:29;-1.80;99.90
21207;DHT22;10761;48.532;8.026;2023-02-28T06:41:55;-1.80;99.90
21207;DHT22;10761;48.532;8.026;2023-02-28T06:44:20;-1.70;99.90
21207;DHT22;10761;48.532;8.026;2023-02-28T06:46:46;-1.70;99.90
21207;DHT22;10761;48.532;8.026;2023-02-28T06:49:12;-1.70;99.90
21207;DHT22;10761;48.532;8.026;2023-02-28T06:51:38;-1.70;99.90
21207;DHT22;10761;48.532;8.026;2023-02-28T06:54:04;-1.60;99.90
21207;DHT22;10761;48.532;8.026;2023-02-28T06:56:30;-1.60;99.90
21207;DHT22;10761;48.532;8.026;2023-02-28T06:58:55;-1.60;99.90
21207;DHT22;10761;48.532;8.026;2023-02-28T07:01:21;-1.60;99.90
21207;DHT22;10761;48.532;8.026;2023-02-28T07:03:48;-1.60;99.90
21207;DHT22;10761;48.532;8.026;2023-02-28T07:06:23;-1.50;99.90
21207;DHT22;10761;48.532;8.026;2023-02-28T07:08:49;-1.50;99.90
21207;DHT22;10761;48.532;8.026;2023-02-28T07:11:15;-1.40;99.90
21207;DHT22;10761;48.532;8.026;2023-02-28T07:13:41;-1.40;99.90
21207;DHT22;10761;48.532;8.026;2023-02-28T07:16:07;-1.30;99.90
21207;DHT22;10761;48.532;8.026;2023-02-28T07:18:34;-1.30;99.90
21207;DHT22;10761;48.532;8.026;2023-02-28T07:21:02;-1.30;99.90
21207;DHT22;10761;48.532;8.026;2023-02-28T07:23:28;-1.30;99.90
21207;DHT22;10761;48.532;8.026;2023-02-28T07:25:54;-1.20;99.90
21207;DHT22;10761;48.532;8.026;2023-02-28T07:28:19;-1.20;99.90
21207;DHT22;10761;48.532;8.026;2023-02-28T07:30:45;-1.20;99.90
21207;DHT22;10761;48.532;8.026;2023-02-28T07:33:10;-1.20;99.90
21207;DHT22;10761;48.532;8.026;2023-02-28T07:35:35;-1.10;99.90
21207;DHT22;10761;48.532;8.026;2023-02-28T07:38:02;-1.10;99.90
21207;DHT22;10761;48.532;8.026;2023-02-28T07:40:28;-1.20;99.90
21207;DHT22;10761;48.532;8.026;2023-02-28T07:42:53;-1.20;99.90
21207;DHT22;10761;48.532;8.026;2023-02-28T07:45:19;-1.20;99.90
21207;DHT22;10761;48.532;8.026;2023-02-28T07:47:45;-1.10;99.90
21207;DHT22;10761;48.532;8.026;2023-02-28T07:50:11;-1.10;99.90
21207;DHT22;10761;48.532;8.026;2023-02-28T07:52:37;-1.10;99.90
21207;DHT22;10761;48.532;8.026;2023-02-28T07:55:03;-1.00;99.90
21207;DHT22;10761;48.532;8.026;2023-02-28T07:57:29;-1.00;99.90
21207;DHT22;10761;48.532;8.026;2023-02-28T07:59:55;-0.90;99.90
21207;DHT22;10761;48.532;8.026;2023-02-28T08:02:20;-0.90;99.90
21207;DHT22;10761;48.532;8.026;2023-02-28T08:04:46;-0.80;99.90
21207;DHT22;10761;48.532;8.026;2023-02-28T08:07:13;-0.80;99.90
21207;DHT22;10761;48.532;8.026;2023-02-28T08:09:39;-0.80;99.90
21207;DHT22;10761;48.532;8.026;2023-02-28T08:12:04;-0.80;99.90
21207;DHT22;10761;48.532;8.026;2023-02-28T08:14:30;-0.80;99.90
21207;DHT22;10761;48.532;8.026;2023-02-28T08:16:55;-0.80;99.90
21207;DHT22;10761;48.532;8.026;2023-02-28T08:19:21;-0.80;99.90
21207;DHT22;10761;48.532;8.026;2023-02-28T08:21:46;-0.70;99.90
21207;DHT22;10761;48.532;8.026;2023-02-28T08:24:12;-0.70;99.90
21207;DHT22;10761;48.532;8.026;2023-02-28T08:26:37;-0.70;99.90
21207;DHT22;10761;48.532;8.026;2023-02-28T08:29:03;-0.70;99.90
21207;DHT22;10761;48.532;8.026;2023-02-28T08:31:28;-0.70;99.90
21207;DHT22;10761;48.532;8.026;2023-02-28T08:33:54;-0.70;99.90
21207;DHT22;10761;48.532;8.026;2023-02-28T08:36:22;-0.60;99.90
21207;DHT22;10761;48.532;8.026;2023-02-28T08:38:48;-0.50;99.90
21207;DHT22;10761;48.532;8.026;2023-02-28T08:41:14;-0.50;99.90
21207;DHT22;10761;48.532;8.026;2023-02-28T08:43:40;-0.50;99.90
21207;DHT22;10761;48.532;8.026;2023-02-28T08:46:05;-0.40;99.90
21207;DHT22;10761;48.532;8.026;2023-02-28T08:48:32;-0.30;99.90
21207;DHT22;10761;48.532;8.026;2023-02-28T08:50:59;-0.30;99.90
21207;DHT22;10761;48.532;8.026;2023-02-28T08:53:25;-0.20;99.90
21207;DHT22;10761;48.532;8.026;2023-02-28T08:56:00;-0.20;99.90
21207;DHT22;10761;48.532;8.026;2023-02-28T08:58:26;-0.20;99.90
21207;DHT22;10761;48.532;8.026;2023-02-28T09:00:52;-0.20;99.90
21207;DHT22;10761;48.532;8.026;2023-02-28T09:03:17;-0.30;99.90
21207;DHT22;10761;48.532;8.026;2023-02-28T09:05:59;-0.20;99.90
21207;DHT22;10761;48.532;8.026;2023-02-28T09:08:25;-0.20;99.90
21207;DHT22;10761;48.532;8.026;2023-02-28T09:10:51;-0.10;99.90
21207;DHT22;10761;48.532;8.026;2023-02-28T09:13:17;-0.10;99.90
21207;DHT22;10761;48.532;8.026;2023-02-28T09:15:43;0.00;99.90
21207;DHT22;10761;48.532;8.026;2023-02-28T09:18:09;0.00;99.90
21207;DHT22;10761;48.532;8.026;2023-02-28T09:20:36;0.00;99.90
21207;DHT22;10761;48.532;8.026;2023-02-28T09:23:02;0.00;99.90
21207;DHT22;10761;48.532;8.026;2023-02-28T09:25:27;0.00;99.90
21207;DHT22;10761;48.532;8.026;2023-02-28T09:27:53;0.00;99.90
21207;DHT22;10761;48.532;8.026;2023-02-28T09:30:18;0.10;99.90
21207;DHT22;10761;48.532;8.026;2023-02-28T09:32:44;0.20;99.90
21207;DHT22;10761;48.532;8.026;2023-02-28T09:35:20;0.30;99.90
21207;DHT22;10761;48.532;8.026;2023-02-28T09:37:47;0.30;99.90
21207;DHT22;10761;48.532;8.026;2023-02-28T09:40:12;0.40;99.90
21207;DHT22;10761;48.532;8.026;2023-02-28T09:42:39;0.50;99.90
21207;DHT22;10761;48.532;8.026;2023-02-28T09:45:06;0.50;99.90
21207;DHT22;10761;48.532;8.026;2023-02-28T09:47:38;0.70;99.90
21207;DHT22;10761;48.532;8.026;2023-02-28T09:52:38;0.70;99.90
21207;DHT22;10761;48.532;8.026;2023-02-28T09:57:42;0.70;99.90
21207;DHT22;10761;48.532;8.026;2023-02-28T10:02:52;0.80;99.90
21207;DHT22;10761;48.532;8.026;2023-02-28T10:05:21;0.90;99.90
21207;DHT22;10761;48.532;8.026;2023-02-28T10:10:40;1.00;99.90
21207;DHT22;10761;48.532;8.026;2023-02-28T10:13:11;1.00;99.90
21207;DHT22;10761;48.532;8.026;2023-02-28T10:15:38;1.00;99.90
21207;DHT22;10761;48.532;8.026;2023-02-28T10:18:04;1.10;99.90
21207;DHT22;10761;48.532;8.026;2023-02-28T10:20:32;1.10;99.90
21207;DHT22;10761;48.532;8.026;2023-02-28T10:23:09;1.20;99.90
21207;DHT22;10761;48.532;8.026;2023-02-28T10:25:37;1.30;99.90
21207;DHT22;10761;48.532;8.026;2023-02-28T10:30:35;1.50;99.90
21207;DHT22;10761;48.532;8.026;2023-02-28T10:33:01;1.60;99.90
21207;DHT22;10761;48.532;8.026;2023-02-28T10:35:28;1.70;99.90
21207;DHT22;10761;48.532;8.026;2023-02-28T10:37:58;1.80;99.90
21207;DHT22;10761;48.532;8.026;2023-02-28T10:40:26;1.80;99.90
21207;DHT22;10761;48.532;8.026;2023-02-28T10:45:24;1.90;99.90
21207;DHT22;10761;48.532;8.026;2023-02-28T10:47:55;2.00;99.90
21207;DHT22;10761;48.532;8.026;2023-02-28T10:53:08;2.20;99.90
21207;DHT22;10761;48.532;8.026;2023-02-28T10:55:39;2.20;99.90
21207;DHT22;10761;48.532;8.026;2023-02-28T10:58:17;2.40;99.90
21207;DHT22;10761;48.532;8.026;2023-02-28T11:00:45;2.60;99.90
21207;DHT22;10761;48.532;8.026;2023-02-28T11:03:24;2.60;99.90
21207;DHT22;10761;48.532;8.026;2023-02-28T11:05:50;2.50;99.90
21207;DHT22;10761;48.532;8.026;2023-02-28T11:08:16;2.60;99.90
21207;DHT22;10761;48.532;8.026;2023-02-28T11:10:54;2.60;99.90
21207;DHT22;10761;48.532;8.026;2023-02-28T11:13:21;2.70;99.90
21207;DHT22;10761;48.532;8.026;2023-02-28T11:15:57;2.90;99.90
21207;DHT22;10761;48.532;8.026;2023-02-28T11:18:27;3.10;99.90
21207;DHT22;10761;48.532;8.026;2023-02-28T11:20:54;3.10;99.90
21207;DHT22;10761;48.532;8.026;2023-02-28T11:23:21;3.10;99.90
21207;DHT22;10761;48.532;8.026;2023-02-28T11:25:52;3.00;99.90
21207;DHT22;10761;48.532;8.026;2023-02-28T11:28:30;3.10;99.90
21207;DHT22;10761;48.532;8.026;2023-02-28T11:31:29;3.20;99.90
21207;DHT22;10761;48.532;8.026;2023-02-28T11:38:41;3.60;99.90
21207;DHT22;10761;48.532;8.026;2023-02-28T11:41:26;3.50;99.90
21207;DHT22;10761;48.532;8.026;2023-02-28T11:44:05;3.50;99.90
21207;DHT22;10761;48.532;8.026;2023-02-28T11:46:36;3.60;99.90
21207;DHT22;10761;48.532;8.026;2023-02-28T11:54:20;3.70;99.90
21207;DHT22;10761;48.532;8.026;2023-02-28T11:56:49;3.70;99.90
21207;DHT22;10761;48.532;8.026;2023-02-28T11:59:35;3.70;99.90
21207;DHT22;10761;48.532;8.026;2023-02-28T12:04:58;4.00;99.90
21207;DHT22;10761;48.532;8.026;2023-02-28T12:10:06;4.40;99.90
21207;DHT22;10761;48.532;8.026;2023-02-28T12:15:29;4.50;99.90
21207;DHT22;10761;48.532;8.026;2023-02-28T12:18:01;4.60;99.90
21207;DHT22;10761;48.532;8.026;2023-02-28T12:20:35;4.70;99.90
21207;DHT22;10761;48.532;8.026;2023-02-28T12:28:26;5.10;99.90
21207;DHT22;10761;48.532;8.026;2023-02-28T12:30:54;5.10;99.90
21207;DHT22;10761;48.532;8.026;2023-02-28T12:33:22;5.00;99.90
21207;DHT22;10761;48.532;8.026;2023-02-28T12:35:51;4.90;99.90
21207;DHT22;10761;48.532;8.026;2023-02-28T12:38:33;4.90;99.90
21207;DHT22;10761;48.532;8.026;2023-02-28T12:41:04;5.20;99.90
21207;DHT22;10761;48.532;8.026;2023-02-28T12:43:34;5.30;99.90
21207;DHT22;10761;48.532;8.026;2023-02-28T12:48:48;5.60;99.90
21207;DHT22;10761;48.532;8.026;2023-02-28T12:51:16;6.30;99.90
21207;DHT22;10761;48.532;8.026;2023-02-28T12:56:22;7.40;99.90
21207;DHT22;10761;48.532;8.026;2023-02-28T12:58:56;8.80;99.90
21207;DHT22;10761;48.532;8.026;2023-02-28T13:06:59;12.70;87.00
21207;DHT22;10761;48.532;8.026;2023-02-28T13:09:29;13.50;1.00
21207;DHT22;10761;48.532;8.026;2023-02-28T13:11:55;13.90;1.00
21207;DHT22;10761;48.532;8.026;2023-02-28T13:19:29;14.60;1.00
21207;DHT22;10761;48.532;8.026;2023-02-28T13:21:55;14.80;1.00
21207;DHT22;10761;48.532;8.026;2023-02-28T13:29:28;15.20;1.00
21207;DHT22;10761;48.532;8.026;2023-02-28T13:40:22;16.60;6.60
21207;DHT22;10761;48.532;8.026;2023-02-28T13:47:29;16.30;13.80
21207;DHT22;10761;48.532;8.026;2023-02-28T13:50:14;16.20;14.30
21207;DHT22;10761;48.532;8.026;2023-02-28T13:52:48;15.00;23.10
21207;DHT22;10761;48.532;8.026;2023-02-28T14:03:23;14.50;26.20
21207;DHT22;10761;48.532;8.026;2023-02-28T14:08:37;15.30;27.60
21207;DHT22;10761;48.532;8.026;2023-02-28T14:11:15;15.90;26.90
21207;DHT22;10761;48.532;8.026;2023-02-28T14:13:48;17.20;25.70
21207;DHT22;10761;48.532;8.026;2023-02-28T14:16:14;17.20;24.40
21207;DHT22;10761;48.532;8.026;2023-02-28T14:18:41;16.50;25.00
21207;DHT22;10761;48.532;8.026;2023-02-28T14:21:13;17.00;23.30
21207;DHT22;10761;48.532;8.026;2023-02-28T14:33:46;18.90;21.30
21207;DHT22;10761;48.532;8.026;2023-02-28T14:36:21;19.60;21.80
21207;DHT22;10761;48.532;8.026;2023-02-28T14:38:50;19.30;19.60
21207;DHT22;10761;48.532;8.026;2023-02-28T14:41:22;18.70;20.00
21207;DHT22;10761;48.532;8.026;2023-02-28T14:43:49;18.50;19.50
21207;DHT22;10761;48.532;8.026;2023-02-28T14:46:15;17.10;20.20
21207;DHT22;10761;48.532;8.026;2023-02-28T14:48:44;16.90;23.00
21207;DHT22;10761;48.532;8.026;2023-02-28T14:51:10;17.80;26.00
21207;DHT22;10761;48.532;8.026;2023-02-28T14:53:36;18.00;25.70
21207;DHT22;10761;48.532;8.026;2023-02-28T14:56:02;18.00;26.10
21207;DHT22;10761;48.532;8.026;2023-02-28T14:58:29;17.60;26.30
21207;DHT22;10761;48.532;8.026;2023-02-28T15:00:55;17.60;26.60
21207;DHT22;10761;48.532;8.026;2023-02-28T15:03:39;17.40;26.10
21207;DHT22;10761;48.532;8.026;2023-02-28T15:06:15;17.90;26.00
21207;DHT22;10761;48.532;8.026;2023-02-28T15:08:42;17.80;25.50
21207;DHT22;10761;48.532;8.026;2023-02-28T15:11:08;17.90;25.20
21207;DHT22;10761;48.532;8.026;2023-02-28T15:16:03;18.70;24.10
21207;DHT22;10761;48.532;8.026;2023-02-28T15:21:18;19.30;21.70
21207;DHT22;10761;48.532;8.026;2023-02-28T15:23:46;18.60;23.60
21207;DHT22;10761;48.532;8.026;2023-02-28T15:26:14;18.40;23.80
21207;DHT22;10761;48.532;8.026;2023-02-28T15:28:40;18.10;24.20
21207;DHT22;10761;48.532;8.026;2023-02-28T15:31:18;18.10;23.80
21207;DHT22;10761;48.532;8.026;2023-02-28T15:33:56;18.40;24.00
21207;DHT22;10761;48.532;8.026;2023-02-28T15:36:26;17.90;23.70
21207;DHT22;10761;48.532;8.026;2023-02-28T15:38:54;17.90;24.10
21207;DHT22;10761;48.532;8.026;2023-02-28T15:44:13;17.30;25.30
21207;DHT22;10761;48.532;8.026;2023-02-28T15:46:36;17.70;24.30
21207;DHT22;10761;48.532;8.026;2023-02-28T15:49:02;17.70;25.30
21207;DHT22;10761;48.532;8.026;2023-02-28T15:51:36;17.60;25.00
21207;DHT22;10761;48.532;8.026;2023-02-28T15:54:07;17.70;25.40
21207;DHT22;10761;48.532;8.026;2023-02-28T15:56:34;18.00;24.70
21207;DHT22;10761;48.532;8.026;2023-02-28T15:59:05;18.10;24.80
21207;DHT22;10761;48.532;8.026;2023-02-28T16:01:34;17.70;24.50
21207;DHT22;10761;48.532;8.026;2023-02-28T16:04:01;17.00;24.70
21207;DHT22;10761;48.532;8.026;2023-02-28T16:06:32;17.00;26.30
21207;DHT22;10761;48.532;8.026;2023-02-28T16:08:58;17.30;24.70
21207;DHT22;10761;48.532;8.026;2023-02-28T16:11:23;17.50;24.30
21207;DHT22;10761;48.532;8.026;2023-02-28T16:13:49;17.20;25.20
21207;DHT22;10761;48.532;8.026;2023-02-28T16:16:16;17.00;25.80
21207;DHT22;10761;48.532;8.026;2023-02-28T16:18:42;17.20;27.60
21207;DHT22;10761;48.532;8.026;2023-02-28T16:21:08;17.00;26.60
21207;DHT22;10761;48.532;8.026;2023-02-28T16:23:34;16.80;27.50
21207;DHT22;10761;48.532;8.026;2023-02-28T16:25:59;16.60;27.30
21207;DHT22;10761;48.532;8.026;2023-02-28T16:28:26;16.20;28.10
21207;DHT22;10761;48.532;8.026;2023-02-28T16:30:56;15.70;28.30
21207;DHT22;10761;48.532;8.026;2023-02-28T16:33:22;15.60;29.10
21207;DHT22;10761;48.532;8.026;2023-02-28T16:35:47;15.40;29.20
21207;DHT22;10761;48.532;8.026;2023-02-28T16:38:13;14.70;29.80
21207;DHT22;10761;48.532;8.026;2023-02-28T16:40:38;14.40;29.90
21207;DHT22;10761;48.532;8.026;2023-02-28T16:43:13;13.90;29.80
21207;DHT22;10761;48.532;8.026;2023-02-28T16:45:40;13.70;32.90
21207;DHT22;10761;48.532;8.026;2023-02-28T16:48:07;13.40;33.60
21207;DHT22;10761;48.532;8.026;2023-02-28T16:50:36;12.80;38.60
21207;DHT22;10761;48.532;8.026;2023-02-28T16:53:01;12.20;42.20
21207;DHT22;10761;48.532;8.026;2023-02-28T16:55:27;11.30;46.00
21207;DHT22;10761;48.532;8.026;2023-02-28T16:57:57;11.10;48.80
21207;DHT22;10761;48.532;8.026;2023-02-28T17:00:23;10.40;50.40
21207;DHT22;10761;48.532;8.026;2023-02-28T17:02:48;9.50;52.60
21207;DHT22;10761;48.532;8.026;2023-02-28T17:05:14;8.90;55.50
21207;DHT22;10761;48.532;8.026;2023-02-28T17:07:40;8.40;57.30
21207;DHT22;10761;48.532;8.026;2023-02-28T17:10:14;7.80;58.30
21207;DHT22;10761;48.532;8.026;2023-02-28T17:12:40;7.20;60.30
21207;DHT22;10761;48.532;8.026;2023-02-28T17:15:05;6.80;63.40
21207;DHT22;10761;48.532;8.026;2023-02-28T17:17:31;6.60;63.80
21207;DHT22;10761;48.532;8.026;2023-02-28T17:19:57;6.20;66.40
21207;DHT22;10761;48.532;8.026;2023-02-28T17:22:22;5.90;67.60
21207;DHT22;10761;48.532;8.026;2023-02-28T17:24:48;5.60;69.00
21207;DHT22;10761;48.532;8.026;2023-02-28T17:27:13;5.40;68.70
21207;DHT22;10761;48.532;8.026;2023-02-28T17:29:39;5.20;70.90
21207;DHT22;10761;48.532;8.026;2023-02-28T17:32:05;5.00;72.60
21207;DHT22;10761;48.532;8.026;2023-02-28T17:34:30;4.80;72.90
21207;DHT22;10761;48.532;8.026;2023-02-28T17:36:56;4.70;74.30
21207;DHT22;10761;48.532;8.026;2023-02-28T17:39:21;4.50;77.00
21207;DHT22;10761;48.532;8.026;2023-02-28T17:41:53;4.20;76.50